sensor_id;sensor_type;location;lat;lon;timestamp;P1;durP1;ratioP1;P2;durP2;ratioP2
34876;SDS011;21086;44.780;17.194;2023-04-06T00:01:43;15.63;;;11.85;;
34876;SDS011;21086;44.780;17.194;2023-04-06T00:04:09;13.18;;;9.52;;
34876;SDS011;21086;44.780;17.194;2023-04-06T00:06:37;13.68;;;10.40;;
34876;SDS011;21086;44.780;17.194;2023-04-06T00:09:03;11.95;;;9.95;;
34876;SDS011;21086;44.780;17.194;2023-04-06T00:11:30;11.43;;;8.75;;
34876;SDS011;21086;44.780;17.194;2023-04-06T00:13:57;11.45;;;8.00;;
34876;SDS011;21086;44.780;17.194;2023-04-06T00:16:24;11.35;;;8.27;;
34876;SDS011;21086;44.780;17.194;2023-04-06T00:18:55;10.70;;;8.10;;
34876;SDS011;21086;44.780;17.194;2023-04-06T00:21:21;11.52;;;7.93;;
34876;SDS011;21086;44.780;17.194;2023-04-06T00:23:48;10.90;;;7.82;;
34876;SDS011;21086;44.780;17.194;2023-04-06T00:26:16;14.90;;;9.68;;
34876;SDS011;21086;44.780;17.194;2023-04-06T00:28:43;11.70;;;7.80;;
34876;SDS011;21086;44.780;17.194;2023-04-06T00:31:09;16.38;;;8.05;;
34876;SDS011;21086;44.780;17.194;2023-04-06T00:33:36;12.82;;;9.65;;
34876;SDS011;21086;44.780;17.194;2023-04-06T00:36:03;10.85;;;7.53;;
34876;SDS011;21086;44.780;17.194;2023-04-06T00:38:31;16.35;;;9.93;;
34876;SDS011;21086;44.780;17.194;2023-04-06T00:40:58;13.43;;;7.63;;
34876;SDS011;21086;44.780;17.194;2023-04-06T00:43:25;11.63;;;8.10;;
34876;SDS011;21086;44.780;17.194;2023-04-06T00:45:52;10.75;;;7.05;;
34876;SDS011;21086;44.780;17.194;2023-04-06T00:48:19;11.38;;;7.65;;
34876;SDS011;21086;44.780;17.194;2023-04-06T00:50:46;11.23;;;6.93;;
34876;SDS011;21086;44.780;17.194;2023-04-06T00:53:13;10.55;;;7.80;;
34876;SDS011;21086;44.780;17.194;2023-04-06T00:55:40;10.20;;;7.07;;
34876;SDS011;21086;44.780;17.194;2023-04-06T00:58:07;9.32;;;6.32;;
34876;SDS011;21086;44.780;17.194;2023-04-06T01:00:34;12.88;;;8.38;;
34876;SDS011;21086;44.780;17.194;2023-04-06T01:03:01;8.02;;;6.18;;
34876;SDS011;21086;44.780;17.194;2023-04-06T01:05:29;7.25;;;5.40;;
34876;SDS011;21086;44.780;17.194;2023-04-06T01:07:57;11.82;;;7.88;;
34876;SDS011;21086;44.780;17.194;2023-04-06T01:10:27;7.40;;;6.07;;
34876;SDS011;21086;44.780;17.194;2023-04-06T01:12:54;9.73;;;7.18;;
34876;SDS011;21086;44.780;17.194;2023-04-06T01:15:21;8.73;;;6.20;;
34876;SDS011;21086;44.780;17.194;2023-04-06T01:17:49;9.98;;;6.63;;
34876;SDS011;21086;44.780;17.194;2023-04-06T01:20:17;11.75;;;7.45;;
34876;SDS011;21086;44.780;17.194;2023-04-06T01:22:44;10.20;;;6.38;;
34876;SDS011;21086;44.780;17.194;2023-04-06T01:25:11;11.73;;;6.45;;
34876;SDS011;21086;44.780;17.194;2023-04-06T01:27:38;7.72;;;6.10;;
34876;SDS011;21086;44.780;17.194;2023-04-06T01:30:05;8.80;;;6.80;;
34876;SDS011;21086;44.780;17.194;2023-04-06T01:32:33;7.85;;;6.20;;
34876;SDS011;21086;44.780;17.194;2023-04-06T01:35:00;7.32;;;5.63;;
34876;SDS011;21086;44.780;17.194;2023-04-06T01:37:28;7.57;;;6.00;;
34876;SDS011;21086;44.780;17.194;2023-04-06T01:39:58;9.15;;;6.18;;
34876;SDS011;21086;44.780;17.194;2023-04-06T01:42:26;8.52;;;6.00;;
34876;SDS011;21086;44.780;17.194;2023-04-06T01:44:52;8.27;;;5.03;;
34876;SDS011;21086;44.780;17.194;2023-04-06T01:47:19;8.43;;;5.28;;
34876;SDS011;21086;44.780;17.194;2023-04-06T01:49:47;8.93;;;5.85;;
34876;SDS011;21086;44.780;17.194;2023-04-06T01:52:13;8.77;;;5.45;;
34876;SDS011;21086;44.780;17.194;2023-04-06T01:54:41;8.88;;;5.80;;
34876;SDS011;21086;44.780;17.194;2023-04-06T01:57:09;8.90;;;5.30;;
34876;SDS011;21086;44.780;17.194;2023-04-06T01:59:37;7.43;;;5.35;;
34876;SDS011;21086;44.780;17.194;2023-04-06T02:02:04;8.48;;;5.68;;
34876;SDS011;21086;44.780;17.194;2023-04-06T02:04:31;7.00;;;5.40;;
34876;SDS011;21086;44.780;17.194;2023-04-06T02:06:58;6.90;;;5.28;;
34876;SDS011;21086;44.780;17.194;2023-04-06T02:09:26;9.90;;;5.30;;
34876;SDS011;21086;44.780;17.194;2023-04-06T02:11:53;8.18;;;5.88;;
34876;SDS011;21086;44.780;17.194;2023-04-06T02:14:19;7.47;;;5.07;;
34876;SDS011;21086;44.780;17.194;2023-04-06T02:16:46;6.57;;;5.15;;
34876;SDS011;21086;44.780;17.194;2023-04-06T02:19:13;7.13;;;5.35;;
34876;SDS011;21086;44.780;17.194;2023-04-06T02:21:41;8.82;;;5.22;;
34876;SDS011;21086;44.780;17.194;2023-04-06T02:24:07;6.15;;;4.63;;
34876;SDS011;21086;44.780;17.194;2023-04-06T02:26:34;8.82;;;4.80;;
34876;SDS011;21086;44.780;17.194;2023-04-06T02:29:01;7.85;;;5.45;;
34876;SDS011;21086;44.780;17.194;2023-04-06T02:31:28;7.82;;;5.53;;
34876;SDS011;21086;44.780;17.194;2023-04-06T02:33:55;7.53;;;3.97;;
34876;SDS011;21086;44.780;17.194;2023-04-06T02:36:22;8.18;;;5.30;;
34876;SDS011;21086;44.780;17.194;2023-04-06T02:38:49;9.48;;;5.32;;
34876;SDS011;21086;44.780;17.194;2023-04-06T02:41:16;7.63;;;5.25;;
34876;SDS011;21086;44.780;17.194;2023-04-06T02:43:43;10.65;;;4.50;;
34876;SDS011;21086;44.780;17.194;2023-04-06T02:46:10;7.35;;;5.10;;
34876;SDS011;21086;44.780;17.194;2023-04-06T02:48:37;11.57;;;5.97;;
34876;SDS011;21086;44.780;17.194;2023-04-06T02:51:04;6.65;;;5.35;;
34876;SDS011;21086;44.780;17.194;2023-04-06T02:53:31;8.18;;;5.45;;
34876;SDS011;21086;44.780;17.194;2023-04-06T02:55:58;9.80;;;5.80;;
34876;SDS011;21086;44.780;17.194;2023-04-06T02:58:25;8.85;;;4.65;;
34876;SDS011;21086;44.780;17.194;2023-04-06T03:00:53;5.90;;;4.80;;
34876;SDS011;21086;44.780;17.194;2023-04-06T03:03:20;8.65;;;5.85;;
34876;SDS011;21086;44.780;17.194;2023-04-06T03:05:47;7.45;;;4.95;;
34876;SDS011;21086;44.780;17.194;2023-04-06T03:08:14;10.25;;;6.03;;
34876;SDS011;21086;44.780;17.194;2023-04-06T03:10:41;6.10;;;4.88;;
34876;SDS011;21086;44.780;17.194;2023-04-06T03:13:08;10.07;;;5.25;;
34876;SDS011;21086;44.780;17.194;2023-04-06T03:15:35;8.60;;;5.72;;
34876;SDS011;21086;44.780;17.194;2023-04-06T03:18:02;6.45;;;5.13;;
34876;SDS011;21086;44.780;17.194;2023-04-06T03:20:29;8.02;;;6.30;;
34876;SDS011;21086;44.780;17.194;2023-04-06T03:22:56;7.07;;;5.40;;
34876;SDS011;21086;44.780;17.194;2023-04-06T03:25:23;7.07;;;4.90;;
34876;SDS011;21086;44.780;17.194;2023-04-06T03:27:51;13.20;;;5.55;;
34876;SDS011;21086;44.780;17.194;2023-04-06T03:30:18;7.70;;;5.20;;
34876;SDS011;21086;44.780;17.194;2023-04-06T03:32:45;15.82;;;5.75;;
34876;SDS011;21086;44.780;17.194;2023-04-06T03:35:12;11.95;;;5.50;;
34876;SDS011;21086;44.780;17.194;2023-04-06T03:37:39;16.33;;;5.10;;
34876;SDS011;21086;44.780;17.194;2023-04-06T03:40:06;11.13;;;6.07;;
34876;SDS011;21086;44.780;17.194;2023-04-06T03:42:33;9.20;;;5.53;;
34876;SDS011;21086;44.780;17.194;2023-04-06T03:45:00;14.32;;;6.28;;
34876;SDS011;21086;44.780;17.194;2023-04-06T03:47:27;22.35;;;5.85;;
34876;SDS011;21086;44.780;17.194;2023-04-06T03:49:54;15.13;;;6.80;;
34876;SDS011;21086;44.780;17.194;2023-04-06T03:52:21;12.95;;;7.65;;
34876;SDS011;21086;44.780;17.194;2023-04-06T03:54:49;13.52;;;7.78;;
34876;SDS011;21086;44.780;17.194;2023-04-06T03:57:16;11.75;;;6.68;;
34876;SDS011;21086;44.780;17.194;2023-04-06T03:59:43;14.98;;;7.32;;
34876;SDS011;21086;44.780;17.194;2023-04-06T04:02:10;12.32;;;7.10;;
34876;SDS011;21086;44.780;17.194;2023-04-06T04:04:36;9.13;;;5.70;;
34876;SDS011;21086;44.780;17.194;2023-04-06T04:07:04;8.32;;;6.00;;
34876;SDS011;21086;44.780;17.194;2023-04-06T04:09:31;15.10;;;7.97;;
34876;SDS011;21086;44.780;17.194;2023-04-06T04:11:58;14.07;;;8.25;;
34876;SDS011;21086;44.780;17.194;2023-04-06T04:14:25;17.35;;;7.55;;
34876;SDS011;21086;44.780;17.194;2023-04-06T04:16:52;13.23;;;7.25;;
34876;SDS011;21086;44.780;17.194;2023-04-06T04:19:19;18.50;;;9.07;;
34876;SDS011;21086;44.780;17.194;2023-04-06T04:21:46;11.45;;;7.43;;
34876;SDS011;21086;44.780;17.194;2023-04-06T04:24:13;13.88;;;7.57;;
34876;SDS011;21086;44.780;17.194;2023-04-06T04:26:40;13.32;;;8.10;;
34876;SDS011;21086;44.780;17.194;2023-04-06T04:29:07;12.23;;;7.72;;
34876;SDS011;21086;44.780;17.194;2023-04-06T04:31:35;11.90;;;7.65;;
34876;SDS011;21086;44.780;17.194;2023-04-06T04:34:02;12.77;;;8.13;;
34876;SDS011;21086;44.780;17.194;2023-04-06T04:36:30;10.73;;;7.32;;
34876;SDS011;21086;44.780;17.194;2023-04-06T04:38:57;12.25;;;8.13;;
34876;SDS011;21086;44.780;17.194;2023-04-06T04:41:24;11.57;;;7.68;;
34876;SDS011;21086;44.780;17.194;2023-04-06T04:43:51;17.20;;;9.48;;
34876;SDS011;21086;44.780;17.194;2023-04-06T04:46:18;11.77;;;7.43;;
34876;SDS011;21086;44.780;17.194;2023-04-06T04:48:45;11.32;;;7.53;;
34876;SDS011;21086;44.780;17.194;2023-04-06T04:51:12;11.45;;;6.97;;
34876;SDS011;21086;44.780;17.194;2023-04-06T04:53:38;13.32;;;7.25;;
34876;SDS011;21086;44.780;17.194;2023-04-06T04:56:06;9.00;;;5.88;;
34876;SDS011;21086;44.780;17.194;2023-04-06T04:58:33;13.55;;;8.50;;
34876;SDS011;21086;44.780;17.194;2023-04-06T05:01:00;12.98;;;8.20;;
34876;SDS011;21086;44.780;17.194;2023-04-06T05:03:32;12.95;;;8.10;;
34876;SDS011;21086;44.780;17.194;2023-04-06T05:06:00;15.48;;;7.47;;
34876;SDS011;21086;44.780;17.194;2023-04-06T05:08:27;16.52;;;9.27;;
34876;SDS011;21086;44.780;17.194;2023-04-06T05:10:54;29.35;;;16.25;;
34876;SDS011;21086;44.780;17.194;2023-04-06T05:13:21;12.38;;;7.78;;
34876;SDS011;21086;44.780;17.194;2023-04-06T05:15:48;8.90;;;5.78;;
34876;SDS011;21086;44.780;17.194;2023-04-06T05:18:15;10.15;;;5.75;;
34876;SDS011;21086;44.780;17.194;2023-04-06T05:20:42;7.82;;;5.65;;
34876;SDS011;21086;44.780;17.194;2023-04-06T05:23:10;8.65;;;5.85;;
34876;SDS011;21086;44.780;17.194;2023-04-06T05:25:37;6.40;;;4.45;;
34876;SDS011;21086;44.780;17.194;2023-04-06T05:28:04;7.78;;;5.07;;
34876;SDS011;21086;44.780;17.194;2023-04-06T05:30:31;7.97;;;4.28;;
34876;SDS011;21086;44.780;17.194;2023-04-06T05:32:58;6.70;;;4.50;;
34876;SDS011;21086;44.780;17.194;2023-04-06T05:35:26;8.57;;;5.78;;
34876;SDS011;21086;44.780;17.194;2023-04-06T05:37:53;10.68;;;4.88;;
34876;SDS011;21086;44.780;17.194;2023-04-06T05:40:20;6.50;;;4.45;;
34876;SDS011;21086;44.780;17.194;2023-04-06T05:42:47;7.25;;;4.90;;
34876;SDS011;21086;44.780;17.194;2023-04-06T05:45:16;9.60;;;5.90;;
34876;SDS011;21086;44.780;17.194;2023-04-06T05:47:45;8.07;;;5.57;;
34876;SDS011;21086;44.780;17.194;2023-04-06T05:50:12;9.32;;;6.25;;
34876;SDS011;21086;44.780;17.194;2023-04-06T05:52:41;8.50;;;5.95;;
34876;SDS011;21086;44.780;17.194;2023-04-06T05:55:09;9.13;;;5.60;;
34876;SDS011;21086;44.780;17.194;2023-04-06T05:57:37;5.72;;;4.22;;
34876;SDS011;21086;44.780;17.194;2023-04-06T06:00:05;7.50;;;4.13;;
34876;SDS011;21086;44.780;17.194;2023-04-06T06:02:35;7.03;;;4.13;;
34876;SDS011;21086;44.780;17.194;2023-04-06T06:05:02;7.57;;;3.70;;
34876;SDS011;21086;44.780;17.194;2023-04-06T06:07:30;6.47;;;4.05;;
34876;SDS011;21086;44.780;17.194;2023-04-06T06:09:57;5.85;;;3.80;;
34876;SDS011;21086;44.780;17.194;2023-04-06T06:12:25;7.85;;;5.40;;
34876;SDS011;21086;44.780;17.194;2023-04-06T06:14:51;6.45;;;3.88;;
34876;SDS011;21086;44.780;17.194;2023-04-06T06:17:18;5.90;;;3.45;;
34876;SDS011;21086;44.780;17.194;2023-04-06T06:19:45;6.38;;;4.25;;
34876;SDS011;21086;44.780;17.194;2023-04-06T06:22:12;4.97;;;3.53;;
34876;SDS011;21086;44.780;17.194;2023-04-06T06:24:40;8.07;;;4.28;;
34876;SDS011;21086;44.780;17.194;2023-04-06T06:27:06;5.65;;;3.60;;
34876;SDS011;21086;44.780;17.194;2023-04-06T06:29:34;6.47;;;4.10;;
34876;SDS011;21086;44.780;17.194;2023-04-06T06:32:01;5.15;;;3.45;;
34876;SDS011;21086;44.780;17.194;2023-04-06T06:34:28;6.10;;;3.60;;
34876;SDS011;21086;44.780;17.194;2023-04-06T06:36:56;6.30;;;3.42;;
34876;SDS011;21086;44.780;17.194;2023-04-06T06:39:23;6.78;;;4.20;;
34876;SDS011;21086;44.780;17.194;2023-04-06T06:41:50;3.97;;;2.95;;
34876;SDS011;21086;44.780;17.194;2023-04-06T06:44:17;4.25;;;3.17;;
34876;SDS011;21086;44.780;17.194;2023-04-06T06:46:44;8.90;;;4.22;;
34876;SDS011;21086;44.780;17.194;2023-04-06T06:49:10;5.20;;;3.85;;
34876;SDS011;21086;44.780;17.194;2023-04-06T06:51:38;4.63;;;3.33;;
34876;SDS011;21086;44.780;17.194;2023-04-06T06:54:05;6.90;;;4.20;;
34876;SDS011;21086;44.780;17.194;2023-04-06T06:56:34;4.85;;;3.35;;
34876;SDS011;21086;44.780;17.194;2023-04-06T06:59:04;5.63;;;3.60;;
34876;SDS011;21086;44.780;17.194;2023-04-06T07:01:32;4.70;;;3.15;;
34876;SDS011;21086;44.780;17.194;2023-04-06T07:04:01;5.45;;;3.60;;
34876;SDS011;21086;44.780;17.194;2023-04-06T07:06:29;5.47;;;4.20;;
34876;SDS011;21086;44.780;17.194;2023-04-06T07:08:56;5.28;;;3.80;;
34876;SDS011;21086;44.780;17.194;2023-04-06T07:11:23;8.15;;;4.75;;
34876;SDS011;21086;44.780;17.194;2023-04-06T07:13:50;4.85;;;3.60;;
34876;SDS011;21086;44.780;17.194;2023-04-06T07:16:17;5.32;;;3.67;;
34876;SDS011;21086;44.780;17.194;2023-04-06T07:18:44;4.15;;;3.30;;
34876;SDS011;21086;44.780;17.194;2023-04-06T07:21:11;6.85;;;3.05;;
34876;SDS011;21086;44.780;17.194;2023-04-06T07:23:39;7.65;;;3.22;;
34876;SDS011;21086;44.780;17.194;2023-04-06T07:26:06;4.97;;;3.47;;
34876;SDS011;21086;44.780;17.194;2023-04-06T07:28:33;7.07;;;4.45;;
34876;SDS011;21086;44.780;17.194;2023-04-06T07:31:00;6.25;;;3.53;;
34876;SDS011;21086;44.780;17.194;2023-04-06T07:33:27;4.75;;;3.13;;
34876;SDS011;21086;44.780;17.194;2023-04-06T07:35:56;8.43;;;4.68;;
34876;SDS011;21086;44.780;17.194;2023-04-06T07:38:25;9.10;;;3.90;;
34876;SDS011;21086;44.780;17.194;2023-04-06T07:40:52;5.28;;;3.33;;
34876;SDS011;21086;44.780;17.194;2023-04-06T07:43:19;6.30;;;3.53;;
34876;SDS011;21086;44.780;17.194;2023-04-06T07:45:46;6.00;;;3.67;;
34876;SDS011;21086;44.780;17.194;2023-04-06T07:48:13;5.05;;;3.17;;
34876;SDS011;21086;44.780;17.194;2023-04-06T07:50:40;4.63;;;2.78;;
34876;SDS011;21086;44.780;17.194;2023-04-06T07:53:08;6.50;;;4.38;;
34876;SDS011;21086;44.780;17.194;2023-04-06T07:55:35;6.75;;;2.78;;
34876;SDS011;21086;44.780;17.194;2023-04-06T07:58:02;4.35;;;2.70;;
34876;SDS011;21086;44.780;17.194;2023-04-06T08:00:29;9.05;;;3.75;;
34876;SDS011;21086;44.780;17.194;2023-04-06T08:02:56;5.05;;;3.15;;
34876;SDS011;21086;44.780;17.194;2023-04-06T08:05:24;4.90;;;2.60;;
34876;SDS011;21086;44.780;17.194;2023-04-06T08:07:51;4.47;;;3.15;;
34876;SDS011;21086;44.780;17.194;2023-04-06T08:10:18;6.00;;;3.25;;
34876;SDS011;21086;44.780;17.194;2023-04-06T08:12:45;5.80;;;3.85;;
34876;SDS011;21086;44.780;17.194;2023-04-06T08:15:12;6.53;;;3.40;;
34876;SDS011;21086;44.780;17.194;2023-04-06T08:17:39;4.35;;;3.28;;
34876;SDS011;21086;44.780;17.194;2023-04-06T08:20:06;4.68;;;2.40;;
34876;SDS011;21086;44.780;17.194;2023-04-06T08:22:33;4.28;;;2.90;;
34876;SDS011;21086;44.780;17.194;2023-04-06T08:25:00;4.88;;;3.08;;
34876;SDS011;21086;44.780;17.194;2023-04-06T08:27:27;5.00;;;2.70;;
34876;SDS011;21086;44.780;17.194;2023-04-06T08:29:54;9.20;;;3.22;;
34876;SDS011;21086;44.780;17.194;2023-04-06T08:32:21;7.75;;;2.72;;
34876;SDS011;21086;44.780;17.194;2023-04-06T08:34:48;3.95;;;2.50;;
34876;SDS011;21086;44.780;17.194;2023-04-06T08:37:16;4.00;;;2.50;;
34876;SDS011;21086;44.780;17.194;2023-04-06T08:39:43;4.93;;;2.78;;
34876;SDS011;21086;44.780;17.194;2023-04-06T08:42:11;8.18;;;3.30;;
34876;SDS011;21086;44.780;17.194;2023-04-06T08:44:45;7.18;;;4.22;;
34876;SDS011;21086;44.780;17.194;2023-04-06T08:47:15;5.65;;;3.20;;
34876;SDS011;21086;44.780;17.194;2023-04-06T08:49:41;4.45;;;2.83;;
34876;SDS011;21086;44.780;17.194;2023-04-06T08:52:10;6.70;;;4.38;;
34876;SDS011;21086;44.780;17.194;2023-04-06T08:54:37;11.05;;;4.22;;
34876;SDS011;21086;44.780;17.194;2023-04-06T08:57:05;4.85;;;2.78;;
34876;SDS011;21086;44.780;17.194;2023-04-06T08:59:33;3.92;;;2.55;;
34876;SDS011;21086;44.780;17.194;2023-04-06T09:02:01;5.43;;;2.85;;
34876;SDS011;21086;44.780;17.194;2023-04-06T09:04:32;5.07;;;2.53;;
34876;SDS011;21086;44.780;17.194;2023-04-06T09:07:00;6.05;;;3.75;;
34876;SDS011;21086;44.780;17.194;2023-04-06T09:09:27;10.52;;;6.05;;
34876;SDS011;21086;44.780;17.194;2023-04-06T09:11:55;5.47;;;2.95;;
34876;SDS011;21086;44.780;17.194;2023-04-06T09:14:44;5.80;;;3.53;;
34876;SDS011;21086;44.780;17.194;2023-04-06T09:17:09;4.00;;;2.40;;
34876;SDS011;21086;44.780;17.194;2023-04-06T09:19:50;3.50;;;2.13;;
34876;SDS011;21086;44.780;17.194;2023-04-06T09:22:18;9.57;;;4.10;;
34876;SDS011;21086;44.780;17.194;2023-04-06T09:24:46;6.85;;;2.97;;
34876;SDS011;21086;44.780;17.194;2023-04-06T09:27:14;2.97;;;1.80;;
34876;SDS011;21086;44.780;17.194;2023-04-06T09:29:42;7.55;;;3.13;;
34876;SDS011;21086;44.780;17.194;2023-04-06T09:32:10;7.18;;;3.05;;
34876;SDS011;21086;44.780;17.194;2023-04-06T09:34:38;5.15;;;2.78;;
34876;SDS011;21086;44.780;17.194;2023-04-06T09:37:18;9.00;;;4.38;;
34876;SDS011;21086;44.780;17.194;2023-04-06T09:39:46;6.38;;;4.32;;
34876;SDS011;21086;44.780;17.194;2023-04-06T09:42:25;3.13;;;2.13;;
34876;SDS011;21086;44.780;17.194;2023-04-06T09:44:52;7.20;;;4.22;;
34876;SDS011;21086;44.780;17.194;2023-04-06T09:47:19;5.13;;;2.72;;
34876;SDS011;21086;44.780;17.194;2023-04-06T09:49:55;3.92;;;2.30;;
34876;SDS011;21086;44.780;17.194;2023-04-06T09:52:26;4.70;;;3.13;;
34876;SDS011;21086;44.780;17.194;2023-04-06T09:54:59;6.13;;;2.55;;
34876;SDS011;21086;44.780;17.194;2023-04-06T09:57:33;5.15;;;3.05;;
34876;SDS011;21086;44.780;17.194;2023-04-06T10:00:34;5.22;;;2.88;;
34876;SDS011;21086;44.780;17.194;2023-04-06T10:05:46;4.63;;;2.70;;
34876;SDS011;21086;44.780;17.194;2023-04-06T10:08:20;4.60;;;2.78;;
34876;SDS011;21086;44.780;17.194;2023-04-06T10:10:50;5.22;;;3.47;;
34876;SDS011;21086;44.780;17.194;2023-04-06T10:13:18;5.45;;;3.03;;
34876;SDS011;21086;44.780;17.194;2023-04-06T10:15:45;5.20;;;3.58;;
34876;SDS011;21086;44.780;17.194;2023-04-06T10:18:13;6.40;;;3.53;;
34876;SDS011;21086;44.780;17.194;2023-04-06T10:20:55;4.50;;;2.90;;
34876;SDS011;21086;44.780;17.194;2023-04-06T10:23:34;2.65;;;1.95;;
34876;SDS011;21086;44.780;17.194;2023-04-06T10:26:01;4.88;;;3.58;;
34876;SDS011;21086;44.780;17.194;2023-04-06T10:28:33;5.63;;;2.40;;
34876;SDS011;21086;44.780;17.194;2023-04-06T10:31:05;5.32;;;3.90;;
34876;SDS011;21086;44.780;17.194;2023-04-06T10:33:33;6.82;;;3.78;;
34876;SDS011;21086;44.780;17.194;2023-04-06T10:36:10;10.13;;;4.50;;
34876;SDS011;21086;44.780;17.194;2023-04-06T10:38:38;5.22;;;3.10;;
34876;SDS011;21086;44.780;17.194;2023-04-06T10:41:08;5.50;;;3.90;;
34876;SDS011;21086;44.780;17.194;2023-04-06T10:43:37;3.92;;;2.40;;
34876;SDS011;21086;44.780;17.194;2023-04-06T10:46:06;6.10;;;4.05;;
34876;SDS011;21086;44.780;17.194;2023-04-06T10:51:09;4.57;;;2.38;;
34876;SDS011;21086;44.780;17.194;2023-04-06T10:53:41;4.45;;;2.30;;
34876;SDS011;21086;44.780;17.194;2023-04-06T10:56:10;4.05;;;2.00;;
34876;SDS011;21086;44.780;17.194;2023-04-06T10:58:43;7.25;;;3.47;;
34876;SDS011;21086;44.780;17.194;2023-04-06T11:01:15;5.05;;;3.47;;
34876;SDS011;21086;44.780;17.194;2023-04-06T11:03:43;3.88;;;2.05;;
34876;SDS011;21086;44.780;17.194;2023-04-06T11:06:21;5.18;;;3.08;;
34876;SDS011;21086;44.780;17.194;2023-04-06T11:08:50;3.28;;;1.90;;
34876;SDS011;21086;44.780;17.194;2023-04-06T11:11:18;2.83;;;1.90;;
34876;SDS011;21086;44.780;17.194;2023-04-06T11:13:56;3.50;;;2.50;;
34876;SDS011;21086;44.780;17.194;2023-04-06T11:16:29;3.17;;;2.55;;
34876;SDS011;21086;44.780;17.194;2023-04-06T11:19:01;4.90;;;3.25;;
34876;SDS011;21086;44.780;17.194;2023-04-06T11:21:31;4.30;;;3.13;;
34876;SDS011;21086;44.780;17.194;2023-04-06T11:24:20;4.38;;;3.38;;
34876;SDS011;21086;44.780;17.194;2023-04-06T11:26:54;3.85;;;3.30;;
34876;SDS011;21086;44.780;17.194;2023-04-06T11:29:26;7.35;;;2.38;;
34876;SDS011;21086;44.780;17.194;2023-04-06T11:31:58;3.58;;;2.30;;
34876;SDS011;21086;44.780;17.194;2023-04-06T11:34:28;3.85;;;2.70;;
34876;SDS011;21086;44.780;17.194;2023-04-06T11:37:00;4.20;;;3.20;;
34876;SDS011;21086;44.780;17.194;2023-04-06T11:39:29;4.90;;;3.83;;
34876;SDS011;21086;44.780;17.194;2023-04-06T11:42:00;5.47;;;3.65;;
34876;SDS011;21086;44.780;17.194;2023-04-06T11:44:43;2.70;;;2.20;;
34876;SDS011;21086;44.780;17.194;2023-04-06T11:47:12;6.85;;;6.13;;
34876;SDS011;21086;44.780;17.194;2023-04-06T11:49:40;4.47;;;3.97;;
34876;SDS011;21086;44.780;17.194;2023-04-06T11:52:18;5.47;;;4.70;;
34876;SDS011;21086;44.780;17.194;2023-04-06T11:54:50;5.85;;;5.25;;
34876;SDS011;21086;44.780;17.194;2023-04-06T11:57:19;3.00;;;2.38;;
34876;SDS011;21086;44.780;17.194;2023-04-06T11:59:51;3.92;;;1.90;;
34876;SDS011;21086;44.780;17.194;2023-04-06T12:02:18;3.00;;;2.42;;
34876;SDS011;21086;44.780;17.194;2023-04-06T12:04:46;3.40;;;1.60;;
34876;SDS011;21086;44.780;17.194;2023-04-06T12:07:13;2.40;;;1.98;;
34876;SDS011;21086;44.780;17.194;2023-04-06T12:09:42;5.75;;;2.75;;
34876;SDS011;21086;44.780;17.194;2023-04-06T12:12:09;2.47;;;2.10;;
34876;SDS011;21086;44.780;17.194;2023-04-06T12:14:36;2.35;;;1.88;;
34876;SDS011;21086;44.780;17.194;2023-04-06T12:17:03;4.15;;;2.70;;
34876;SDS011;21086;44.780;17.194;2023-04-06T12:19:30;4.35;;;2.35;;
34876;SDS011;21086;44.780;17.194;2023-04-06T12:21:58;3.10;;;2.30;;
34876;SDS011;21086;44.780;17.194;2023-04-06T12:24:25;2.50;;;2.10;;
34876;SDS011;21086;44.780;17.194;2023-04-06T12:26:52;5.80;;;3.30;;
34876;SDS011;21086;44.780;17.194;2023-04-06T12:29:35;3.35;;;2.78;;
34876;SDS011;21086;44.780;17.194;2023-04-06T12:32:02;7.32;;;5.07;;
34876;SDS011;21086;44.780;17.194;2023-04-06T12:34:29;4.93;;;4.18;;
34876;SDS011;21086;44.780;17.194;2023-04-06T12:36:56;5.43;;;2.40;;
34876;SDS011;21086;44.780;17.194;2023-04-06T12:39:24;2.95;;;1.88;;
34876;SDS011;21086;44.780;17.194;2023-04-06T12:41:54;2.47;;;1.90;;
34876;SDS011;21086;44.780;17.194;2023-04-06T12:44:22;2.40;;;1.67;;
34876;SDS011;21086;44.780;17.194;2023-04-06T12:46:52;2.40;;;1.63;;
34876;SDS011;21086;44.780;17.194;2023-04-06T12:49:19;2.38;;;1.23;;
34876;SDS011;21086;44.780;17.194;2023-04-06T12:51:46;2.63;;;1.63;;
34876;SDS011;21086;44.780;17.194;2023-04-06T12:54:13;3.42;;;1.73;;
34876;SDS011;21086;44.780;17.194;2023-04-06T12:56:40;3.17;;;2.28;;
34876;SDS011;21086;44.780;17.194;2023-04-06T12:59:07;2.33;;;1.85;;
34876;SDS011;21086;44.780;17.194;2023-04-06T13:01:34;2.45;;;1.27;;
34876;SDS011;21086;44.780;17.194;2023-04-06T13:04:01;4.22;;;3.60;;
34876;SDS011;21086;44.780;17.194;2023-04-06T13:06:29;3.70;;;3.00;;
34876;SDS011;21086;44.780;17.194;2023-04-06T13:08:56;4.55;;;3.75;;
34876;SDS011;21086;44.780;17.194;2023-04-06T13:11:23;3.08;;;2.30;;
34876;SDS011;21086;44.780;17.194;2023-04-06T13:13:54;3.97;;;2.50;;
34876;SDS011;21086;44.780;17.194;2023-04-06T13:16:21;5.10;;;2.88;;
34876;SDS011;21086;44.780;17.194;2023-04-06T13:18:48;5.22;;;2.30;;
34876;SDS011;21086;44.780;17.194;2023-04-06T13:21:16;4.00;;;2.85;;
34876;SDS011;21086;44.780;17.194;2023-04-06T13:23:44;8.63;;;4.28;;
34876;SDS011;21086;44.780;17.194;2023-04-06T13:26:11;4.30;;;2.50;;
34876;SDS011;21086;44.780;17.194;2023-04-06T13:28:39;4.80;;;2.97;;
34876;SDS011;21086;44.780;17.194;2023-04-06T13:31:07;3.67;;;1.85;;
34876;SDS011;21086;44.780;17.194;2023-04-06T13:33:34;3.08;;;2.35;;
34876;SDS011;21086;44.780;17.194;2023-04-06T13:36:02;3.30;;;2.25;;
34876;SDS011;21086;44.780;17.194;2023-04-06T13:38:29;2.75;;;2.20;;
34876;SDS011;21086;44.780;17.194;2023-04-06T13:40:56;5.85;;;2.20;;
34876;SDS011;21086;44.780;17.194;2023-04-06T13:43:23;6.47;;;2.17;;
34876;SDS011;21086;44.780;17.194;2023-04-06T13:45:53;3.17;;;2.85;;
34876;SDS011;21086;44.780;17.194;2023-04-06T13:48:22;3.13;;;2.63;;
34876;SDS011;21086;44.780;17.194;2023-04-06T13:50:49;4.40;;;2.38;;
34876;SDS011;21086;44.780;17.194;2023-04-06T13:53:16;3.58;;;2.40;;
34876;SDS011;21086;44.780;17.194;2023-04-06T13:55:43;4.45;;;2.47;;
34876;SDS011;21086;44.780;17.194;2023-04-06T13:58:11;2.78;;;2.08;;
34876;SDS011;21086;44.780;17.194;2023-04-06T14:00:38;1.98;;;1.70;;
34876;SDS011;21086;44.780;17.194;2023-04-06T14:03:05;5.18;;;2.15;;
34876;SDS011;21086;44.780;17.194;2023-04-06T14:05:32;3.92;;;1.63;;
34876;SDS011;21086;44.780;17.194;2023-04-06T14:07:59;3.95;;;3.03;;
34876;SDS011;21086;44.780;17.194;2023-04-06T14:10:26;5.78;;;5.07;;
34876;SDS011;21086;44.780;17.194;2023-04-06T14:12:54;3.70;;;2.92;;
34876;SDS011;21086;44.780;17.194;2023-04-06T14:15:22;5.88;;;3.20;;
34876;SDS011;21086;44.780;17.194;2023-04-06T14:17:50;6.32;;;2.60;;
34876;SDS011;21086;44.780;17.194;2023-04-06T14:20:18;3.58;;;2.45;;
34876;SDS011;21086;44.780;17.194;2023-04-06T14:22:45;4.60;;;2.92;;
34876;SDS011;21086;44.780;17.194;2023-04-06T14:25:13;5.13;;;3.17;;
34876;SDS011;21086;44.780;17.194;2023-04-06T14:27:42;3.75;;;2.80;;
34876;SDS011;21086;44.780;17.194;2023-04-06T14:30:10;3.03;;;2.30;;
34876;SDS011;21086;44.780;17.194;2023-04-06T14:32:37;4.20;;;2.55;;
34876;SDS011;21086;44.780;17.194;2023-04-06T14:35:04;3.20;;;2.30;;
34876;SDS011;21086;44.780;17.194;2023-04-06T14:37:33;2.10;;;1.90;;
34876;SDS011;21086;44.780;17.194;2023-04-06T14:40:01;4.43;;;2.80;;
34876;SDS011;21086;44.780;17.194;2023-04-06T14:42:31;3.80;;;2.15;;